createdAt,value
2023-02-24T00:00:35.106Z,23.00
2023-02-24T00:03:06.732Z,21.90
2023-02-24T00:05:39.078Z,21.90
2023-02-24T00:08:07.644Z,23.13
2023-02-24T00:10:37.501Z,22.73
2023-02-24T00:13:05.710Z,20.17
2023-02-24T00:15:33.949Z,18.67
2023-02-24T00:18:06.985Z,20.50
2023-02-24T00:20:37.202Z,21.27
2023-02-24T00:23:05.408Z,23.93
2023-02-24T00:25:33.519Z,18.83
2023-02-24T00:28:01.969Z,22.40
2023-02-24T00:30:32.739Z,19.57
2023-02-24T00:33:02.761Z,19.20
2023-02-24T00:35:30.999Z,20.77
2023-02-24T00:38:00.804Z,21.00
2023-02-24T00:40:30.345Z,22.30
2023-02-24T00:42:59.009Z,20.33
2023-02-24T00:45:30.684Z,21.70
2023-02-24T00:47:59.006Z,22.40
2023-02-24T00:50:27.355Z,23.60
2023-02-24T00:52:55.482Z,23.13
2023-02-24T00:55:27.849Z,25.43
2023-02-24T00:57:56.292Z,25.77
2023-02-24T01:00:24.661Z,27.33
2023-02-24T01:02:52.772Z,28.77
2023-02-24T01:05:21.181Z,30.27
2023-02-24T01:07:49.415Z,28.97
2023-02-24T01:10:20.730Z,28.03
2023-02-24T01:12:49.749Z,30.17
2023-02-24T01:15:22.193Z,29.17
2023-02-24T01:17:50.418Z,29.63
2023-02-24T01:20:19.383Z,38.00
2023-02-24T01:22:53.001Z,34.27
2023-02-24T01:25:21.628Z,34.80
2023-02-24T01:27:52.730Z,36.53
2023-02-24T01:30:20.951Z,32.77
2023-02-24T01:32:49.385Z,30.40
2023-02-24T01:35:17.936Z,34.10
2023-02-24T01:37:46.426Z,36.07
2023-02-24T01:40:21.469Z,33.70
2023-02-24T01:42:52.128Z,36.87
2023-02-24T01:45:25.913Z,32.80
2023-02-24T01:47:58.161Z,31.60
2023-02-24T01:50:28.983Z,32.27
2023-02-24T01:53:01.621Z,31.87
2023-02-24T01:55:36.821Z,32.30
2023-02-24T01:58:15.480Z,32.87
2023-02-24T02:00:47.129Z,35.77
2023-02-24T02:03:26.547Z,35.37
2023-02-24T02:06:01.026Z,32.77
2023-02-24T02:08:31.023Z,34.37
2023-02-24T02:11:06.524Z,34.93
2023-02-24T02:13:40.508Z,33.07
2023-02-24T02:16:31.078Z,26.93
2023-02-24T02:19:29.418Z,18.57
2023-02-24T02:22:16.986Z,11.53
2023-02-24T02:24:55.261Z,11.47
2023-02-24T02:28:07.438Z,11.87
2023-02-24T02:31:19.794Z,9.30
2023-02-24T02:34:11.738Z,12.00
2023-02-24T02:36:59.579Z,9.10
2023-02-24T02:39:44.058Z,10.53
2023-02-24T02:42:26.403Z,13.03
2023-02-24T02:45:07.784Z,12.47
2023-02-24T02:47:43.905Z,15.77
2023-02-24T02:50:21.062Z,11.43
2023-02-24T02:52:56.943Z,11.00
2023-02-24T02:55:36.682Z,15.17
2023-02-24T02:58:11.001Z,11.77
2023-02-24T03:00:49.976Z,11.63
2023-02-24T03:03:20.524Z,11.13
2023-02-24T03:05:58.086Z,14.83
2023-02-24T03:08:34.238Z,13.73
2023-02-24T03:11:05.801Z,15.90
2023-02-24T03:13:41.047Z,9.80
2023-02-24T03:16:13.496Z,13.70
2023-02-24T03:18:50.823Z,14.03
2023-02-24T03:21:31.123Z,15.00
2023-02-24T03:24:00.093Z,17.27
2023-02-24T03:26:34.039Z,15.70
2023-02-24T03:29:17.560Z,14.20
2023-02-24T03:31:54.155Z,17.70
2023-02-24T03:34:31.202Z,16.50
2023-02-24T03:37:01.904Z,16.23
2023-02-24T03:39:31.489Z,14.03
2023-02-24T03:42:07.326Z,17.67
2023-02-24T03:44:35.474Z,16.20
2023-02-24T03:47:03.877Z,15.80
2023-02-24T03:49:32.167Z,15.37
2023-02-24T03:52:22.429Z,15.13
2023-02-24T03:55:09.128Z,13.10
2023-02-24T03:57:59.891Z,13.30
2023-02-24T04:00:40.184Z,13.93
2023-02-24T04:03:25.540Z,11.97
2023-02-24T04:06:11.159Z,13.87
2023-02-24T04:08:48.484Z,15.40
2023-02-24T04:11:28.981Z,18.13
2023-02-24T04:14:06.402Z,17.73
2023-02-24T04:16:49.440Z,14.77
2023-02-24T04:19:22.305Z,15.83
2023-02-24T04:21:52.526Z,14.47
2023-02-24T04:24:28.258Z,13.07
2023-02-24T04:27:00.501Z,10.23
2023-02-24T04:29:35.580Z,16.20
2023-02-24T04:32:10.569Z,12.20
2023-02-24T04:34:40.650Z,11.70
2023-02-24T04:37:08.833Z,13.47
2023-02-24T04:39:38.897Z,12.50
2023-02-24T04:42:08.054Z,12.23
2023-02-24T04:44:36.518Z,16.50
2023-02-24T04:47:04.864Z,13.37
2023-02-24T04:49:33.961Z,12.00
2023-02-24T04:52:02.406Z,15.67
2023-02-24T04:54:30.556Z,14.97
2023-02-24T04:57:00.000Z,10.43
2023-02-24T04:59:29.186Z,12.03
2023-02-24T05:02:01.329Z,11.53
2023-02-24T05:04:31.826Z,10.03
2023-02-24T05:07:00.253Z,10.77
2023-02-24T05:09:30.110Z,8.80
2023-02-24T05:12:00.266Z,12.13
2023-02-24T05:14:28.427Z,12.63
2023-02-24T05:17:00.336Z,11.50
2023-02-24T05:19:46.538Z,8.37
2023-02-24T05:22:17.477Z,10.53
2023-02-24T05:24:47.904Z,12.10
2023-02-24T05:27:17.560Z,9.77
2023-02-24T05:29:45.997Z,12.30
2023-02-24T05:32:16.653Z,11.37
2023-02-24T05:34:44.907Z,13.00
2023-02-24T05:37:16.559Z,13.77
2023-02-24T05:39:44.716Z,6.97
2023-02-24T05:42:12.969Z,15.47
2023-02-24T05:44:42.428Z,10.33
2023-02-24T05:47:10.833Z,7.97
2023-02-24T05:49:39.161Z,10.70
2023-02-24T05:52:10.055Z,8.43
2023-02-24T05:54:41.009Z,10.53
2023-02-24T05:57:12.827Z,7.27
2023-02-24T05:59:44.910Z,7.80
2023-02-24T06:02:16.941Z,17.87
2023-02-24T06:04:50.719Z,10.67
2023-02-24T06:07:22.878Z,12.13
2023-02-24T06:09:54.573Z,10.37
2023-02-24T06:12:25.706Z,9.60
2023-02-24T06:14:55.810Z,14.03
2023-02-24T06:17:24.558Z,6.73
2023-02-24T06:19:54.882Z,9.13
2023-02-24T06:22:26.650Z,14.70
2023-02-24T06:24:56.860Z,9.03
2023-02-24T06:27:25.643Z,10.37
2023-02-24T06:29:56.741Z,7.40
2023-02-24T06:32:27.255Z,11.73
2023-02-24T06:34:57.135Z,12.30
2023-02-24T06:37:25.425Z,13.17
2023-02-24T06:39:53.544Z,9.23
2023-02-24T06:42:21.669Z,10.30
2023-02-24T06:44:50.340Z,11.27
2023-02-24T06:47:20.071Z,7.97
2023-02-24T06:49:48.674Z,9.17
2023-02-24T06:52:18.895Z,18.37
2023-02-24T06:54:52.276Z,10.40
2023-02-24T06:57:20.640Z,10.17
2023-02-24T06:59:48.934Z,14.67
2023-02-24T07:02:17.663Z,10.23
2023-02-24T07:04:47.541Z,8.80
2023-02-24T07:07:17.247Z,8.57
2023-02-24T07:09:45.719Z,13.40
2023-02-24T07:12:20.792Z,7.80
2023-02-24T07:14:50.652Z,8.60
2023-02-24T07:17:19.901Z,11.53
2023-02-24T07:19:49.347Z,10.13
2023-02-24T07:22:25.000Z,12.13
2023-02-24T07:25:00.239Z,12.17
2023-02-24T07:27:28.469Z,12.13
2023-02-24T07:29:56.634Z,9.90
2023-02-24T07:32:25.408Z,11.70
2023-02-24T07:34:55.062Z,12.53
2023-02-24T07:37:24.283Z,10.53
2023-02-24T07:39:52.801Z,11.63
2023-02-24T07:42:21.191Z,10.07
2023-02-24T07:44:49.585Z,7.20
2023-02-24T07:47:17.847Z,12.30
2023-02-24T07:49:46.236Z,12.33
2023-02-24T07:52:16.056Z,11.83
2023-02-24T07:54:44.291Z,10.13
2023-02-24T07:57:13.726Z,10.70
2023-02-24T07:59:45.456Z,12.63
2023-02-24T08:02:13.967Z,9.13
2023-02-24T08:04:48.180Z,8.63
2023-02-24T08:07:24.094Z,13.00
2023-02-24T08:10:13.998Z,9.87
2023-02-24T08:12:43.620Z,12.63
2023-02-24T08:15:23.944Z,12.30
2023-02-24T08:17:56.770Z,9.97
2023-02-24T08:20:29.599Z,6.13
2023-02-24T08:22:59.107Z,12.73
2023-02-24T08:25:36.498Z,14.37
2023-02-24T08:28:11.189Z,13.87
2023-02-24T08:30:45.302Z,16.67
2023-02-24T08:33:20.494Z,13.00
2023-02-24T08:36:00.809Z,9.63
2023-02-24T08:38:41.776Z,13.47
2023-02-24T08:41:20.369Z,11.67
2023-02-24T08:43:50.287Z,10.40
2023-02-24T08:46:26.098Z,13.83
2023-02-24T08:48:57.554Z,10.50
2023-02-24T08:51:29.700Z,9.40
2023-02-24T08:54:01.766Z,10.53
2023-02-24T08:56:34.482Z,7.40
2023-02-24T08:59:06.384Z,8.27
2023-02-24T09:01:37.954Z,8.50
2023-02-24T09:04:10.517Z,7.87
2023-02-24T09:06:44.710Z,8.73
2023-02-24T09:09:22.451Z,5.40
2023-02-24T09:11:56.011Z,7.23
2023-02-24T09:14:29.271Z,8.63
2023-02-24T09:17:07.153Z,7.73
2023-02-24T09:20:01.976Z,8.93
2023-02-24T09:22:33.147Z,6.43
2023-02-24T09:25:25.788Z,7.67
2023-02-24T09:27:57.119Z,11.67
2023-02-24T09:30:38.991Z,6.90
2023-02-24T09:33:17.810Z,6.33
2023-02-24T09:35:48.908Z,5.90
2023-02-24T09:38:19.936Z,8.53
2023-02-24T09:40:50.718Z,6.03
2023-02-24T09:43:24.573Z,7.13
2023-02-24T09:46:01.942Z,8.10
2023-02-24T09:48:44.654Z,8.80
2023-02-24T09:51:22.737Z,8.23
2023-02-24T09:53:56.576Z,6.50
2023-02-24T09:56:42.380Z,7.03
2023-02-24T09:59:26.243Z,7.50
2023-02-24T10:02:03.944Z,9.87
2023-02-24T10:05:08.045Z,7.73
2023-02-24T10:07:43.920Z,10.97
2023-02-24T10:10:20.611Z,8.20
2023-02-24T10:12:59.914Z,10.20
2023-02-24T10:15:48.736Z,5.97
2023-02-24T10:18:32.876Z,8.67
2023-02-24T10:21:30.521Z,10.87
2023-02-24T10:24:14.390Z,9.40
2023-02-24T10:27:00.643Z,10.30
2023-02-24T10:29:55.477Z,12.97
2023-02-24T10:32:41.197Z,8.57
2023-02-24T10:35:17.494Z,12.40
2023-02-24T10:37:45.818Z,9.80
2023-02-24T10:40:26.233Z,10.53
2023-02-24T10:43:10.313Z,7.43
2023-02-24T10:45:45.132Z,8.27
2023-02-24T10:48:40.412Z,12.53
2023-02-24T10:51:19.816Z,7.17
2023-02-24T10:54:09.862Z,7.73
2023-02-24T10:56:44.622Z,7.17
2023-02-24T10:59:41.830Z,8.27
2023-02-24T11:02:29.698Z,7.83
2023-02-24T11:05:25.030Z,5.87
2023-02-24T11:08:15.658Z,6.57
2023-02-24T11:10:58.636Z,5.27
2023-02-24T11:13:45.685Z,6.07
2023-02-24T11:16:31.425Z,5.83
2023-02-24T11:19:00.856Z,5.10
2023-02-24T11:21:30.303Z,5.27
2023-02-24T11:24:02.788Z,3.83
2023-02-24T11:26:38.506Z,4.70
2023-02-24T11:29:37.039Z,4.87
2023-02-24T11:32:33.943Z,6.20
2023-02-24T11:35:16.106Z,5.80
2023-02-24T11:38:01.753Z,6.90
2023-02-24T11:40:37.982Z,6.17
2023-02-24T11:43:14.732Z,6.80
2023-02-24T11:45:49.905Z,5.17
2023-02-24T11:48:24.066Z,6.33
2023-02-24T11:51:01.453Z,8.20
2023-02-24T11:53:36.372Z,4.70
2023-02-24T11:56:12.935Z,5.50
2023-02-24T11:58:51.297Z,6.93
2023-02-24T12:01:29.311Z,9.47
2023-02-24T12:04:13.233Z,8.40
2023-02-24T12:06:51.897Z,5.83
2023-02-24T12:09:27.726Z,6.73
2023-02-24T12:12:02.019Z,10.53
2023-02-24T12:14:39.286Z,7.40
2023-02-24T12:17:19.221Z,7.00
2023-02-24T12:19:59.647Z,8.10
2023-02-24T12:22:40.135Z,7.10
2023-02-24T12:25:14.819Z,8.07
2023-02-24T12:28:04.309Z,6.07
2023-02-24T12:30:51.830Z,7.43
2023-02-24T12:33:45.992Z,5.93
2023-02-24T12:36:37.529Z,8.07
2023-02-24T12:39:16.141Z,6.87
2023-02-24T12:41:57.999Z,6.67
2023-02-24T12:44:39.388Z,6.23
2023-02-24T12:47:14.526Z,8.13
2023-02-24T12:50:06.672Z,8.23
2023-02-24T12:52:50.322Z,6.97
2023-02-24T12:55:27.874Z,8.10
2023-02-24T12:58:10.062Z,8.60
2023-02-24T13:00:52.144Z,7.13
2023-02-24T13:03:56.932Z,8.23
2023-02-24T13:06:48.944Z,5.50
2023-02-24T13:09:29.256Z,6.63
2023-02-24T13:12:04.835Z,7.50
2023-02-24T13:14:37.614Z,8.47
2023-02-24T13:17:19.741Z,4.17
2023-02-24T13:19:49.083Z,6.07
2023-02-24T13:22:29.159Z,4.37
2023-02-24T13:25:13.385Z,7.33
2023-02-24T13:27:57.168Z,6.50
2023-02-24T13:30:32.555Z,7.20
2023-02-24T13:33:05.103Z,8.23
2023-02-24T13:35:37.203Z,6.83
2023-02-24T13:38:26.924Z,5.10
2023-02-24T13:40:55.525Z,5.67
2023-02-24T13:43:30.820Z,8.83
2023-02-24T13:46:03.274Z,6.80
2023-02-24T13:48:58.662Z,5.83
2023-02-24T13:51:59.297Z,7.43
2023-02-24T13:55:04.010Z,5.30
2023-02-24T13:58:10.591Z,7.07
2023-02-24T14:01:02.088Z,7.57
2023-02-24T14:03:31.115Z,4.63
2023-02-24T14:06:01.507Z,6.07
2023-02-24T14:08:43.157Z,9.03
2023-02-24T14:11:16.178Z,7.07
2023-02-24T14:13:50.549Z,6.30
2023-02-24T14:16:24.786Z,6.80
2023-02-24T14:18:58.733Z,7.43
2023-02-24T14:21:29.930Z,10.40
2023-02-24T14:24:00.192Z,6.63
2023-02-24T14:26:31.983Z,6.53
2023-02-24T14:29:02.684Z,9.50
2023-02-24T14:31:32.353Z,11.57
2023-02-24T14:34:03.679Z,9.03
2023-02-24T14:36:38.350Z,8.97
2023-02-24T14:39:15.959Z,7.53
2023-02-24T14:41:45.304Z,11.60
2023-02-24T14:44:23.526Z,7.63
2023-02-24T14:46:56.760Z,6.70
2023-02-24T14:49:28.697Z,5.13
2023-02-24T14:52:02.829Z,7.47
2023-02-24T14:54:44.837Z,7.27
2023-02-24T14:57:19.719Z,11.23
2023-02-24T14:59:52.921Z,7.40
2023-02-24T15:02:28.718Z,9.40
2023-02-24T15:04:59.041Z,8.17
2023-02-24T15:07:31.975Z,10.07
2023-02-24T15:10:01.931Z,7.80
2023-02-24T15:12:34.308Z,9.60
2023-02-24T15:15:08.408Z,10.17
2023-02-24T15:17:42.340Z,8.60
2023-02-24T15:20:32.046Z,7.83
2023-02-24T15:23:00.499Z,9.57
2023-02-24T15:25:42.277Z,9.53
2023-02-24T15:28:25.801Z,10.30
2023-02-24T15:31:10.923Z,9.93
2023-02-24T15:33:43.806Z,8.47
2023-02-24T15:36:19.281Z,7.10
2023-02-24T15:38:52.357Z,13.63
2023-02-24T15:41:20.739Z,12.23
2023-02-24T15:43:52.925Z,9.60
2023-02-24T15:46:28.825Z,12.77
2023-02-24T15:49:02.946Z,9.40
2023-02-24T15:51:38.612Z,13.87
2023-02-24T15:54:13.722Z,8.40
2023-02-24T15:56:43.794Z,8.53
2023-02-24T15:59:15.471Z,12.47
2023-02-24T16:01:43.769Z,9.20
2023-02-24T16:04:13.467Z,6.27
2023-02-24T16:06:54.247Z,10.07
2023-02-24T16:09:33.461Z,5.13
2023-02-24T16:12:04.540Z,5.23
2023-02-24T16:14:33.509Z,7.10
2023-02-24T16:17:08.749Z,5.40
2023-02-24T16:19:38.420Z,5.97
2023-02-24T16:22:06.511Z,4.77
2023-02-24T16:24:34.604Z,5.17
2023-02-24T16:27:02.975Z,5.63
2023-02-24T16:29:31.491Z,3.80
2023-02-24T16:31:59.866Z,5.00
2023-02-24T16:34:28.188Z,4.63
2023-02-24T16:36:57.620Z,5.20
2023-02-24T16:39:25.957Z,6.37
2023-02-24T16:41:54.071Z,4.67
2023-02-24T16:44:23.153Z,4.87
2023-02-24T16:46:53.173Z,5.17
2023-02-24T16:49:22.224Z,8.23
2023-02-24T16:51:50.425Z,7.03
2023-02-24T16:54:21.892Z,5.83
2023-02-24T16:56:50.597Z,7.60
2023-02-24T16:59:18.728Z,7.77
2023-02-24T17:01:46.856Z,5.87
2023-02-24T17:04:15.127Z,5.83
2023-02-24T17:06:43.534Z,6.80
2023-02-24T17:09:15.349Z,5.47
2023-02-24T17:11:45.759Z,5.97
2023-02-24T17:14:19.380Z,7.07
2023-02-24T17:16:48.749Z,6.77
2023-02-24T17:19:17.696Z,5.80
2023-02-24T17:21:46.618Z,5.70
2023-02-24T17:24:17.635Z,6.50
2023-02-24T17:26:47.957Z,5.93
2023-02-24T17:29:16.302Z,7.20
2023-02-24T17:31:44.539Z,5.53
2023-02-24T17:34:12.780Z,5.57
2023-02-24T17:36:40.896Z,5.77
2023-02-24T17:39:09.097Z,5.90
2023-02-24T17:41:37.208Z,5.63
2023-02-24T17:44:06.643Z,7.07
2023-02-24T17:46:34.727Z,7.83
2023-02-24T17:49:04.887Z,5.80
2023-02-24T17:51:33.458Z,6.33
2023-02-24T17:54:01.490Z,6.67
2023-02-24T17:56:29.551Z,7.80
2023-02-24T17:58:58.883Z,6.63
2023-02-24T18:01:29.095Z,7.80
2023-02-24T18:03:58.157Z,7.33
2023-02-24T18:06:27.048Z,7.07
2023-02-24T18:08:55.116Z,8.07
2023-02-24T18:11:23.201Z,8.90
2023-02-24T18:13:52.626Z,9.17
2023-02-24T18:16:21.259Z,8.77
2023-02-24T18:18:51.394Z,8.33
2023-02-24T18:21:20.387Z,9.67
2023-02-24T18:23:49.551Z,9.37
2023-02-24T18:26:18.463Z,11.30
2023-02-24T18:28:46.532Z,11.77
2023-02-24T18:31:20.066Z,10.97
2023-02-24T18:33:49.978Z,11.10
2023-02-24T18:36:19.735Z,10.83
2023-02-24T18:38:48.190Z,11.07
2023-02-24T18:41:19.428Z,11.17
2023-02-24T18:43:50.045Z,11.50
2023-02-24T18:46:19.554Z,11.33
2023-02-24T18:48:51.132Z,11.87
2023-02-24T18:51:22.610Z,11.93
2023-02-24T18:53:52.947Z,11.50
2023-02-24T18:56:24.611Z,10.67
2023-02-24T18:58:55.665Z,12.30
2023-02-24T19:01:29.764Z,11.50
2023-02-24T19:04:00.399Z,11.93
2023-02-24T19:06:32.160Z,12.43
2023-02-24T19:09:02.572Z,10.73
2023-02-24T19:11:31.240Z,12.27
2023-02-24T19:14:00.596Z,11.30
2023-02-24T19:16:28.950Z,10.57
2023-02-24T19:19:00.804Z,12.90
2023-02-24T19:21:31.809Z,10.67
2023-02-24T19:24:02.121Z,11.43
2023-02-24T19:26:30.606Z,10.63
2023-02-24T19:28:59.927Z,12.87
2023-02-24T19:31:30.655Z,11.87
2023-02-24T19:34:03.933Z,11.83
2023-02-24T19:36:34.618Z,12.47
2023-02-24T19:39:03.705Z,11.70
2023-02-24T19:41:32.662Z,11.43
2023-02-24T19:44:01.008Z,14.13
2023-02-24T19:46:32.824Z,11.27
2023-02-24T19:49:02.285Z,11.40
2023-02-24T19:51:31.099Z,13.80
2023-02-24T19:54:03.137Z,11.13
2023-02-24T19:56:34.626Z,11.30
2023-02-24T19:59:05.454Z,11.90
2023-02-24T20:01:33.746Z,9.83
2023-02-24T20:04:05.555Z,10.40
2023-02-24T20:06:36.556Z,10.47
2023-02-24T20:09:07.329Z,10.57
2023-02-24T20:11:37.256Z,11.77
2023-02-24T20:14:05.784Z,14.37
2023-02-24T20:16:34.796Z,10.60
2023-02-24T20:19:05.908Z,11.87
2023-02-24T20:21:35.128Z,13.30
2023-02-24T20:24:05.401Z,11.33
2023-02-24T20:26:34.188Z,12.73
2023-02-24T20:29:02.434Z,11.43
2023-02-24T20:31:31.154Z,10.67
2023-02-24T20:33:59.282Z,12.77
2023-02-24T20:36:29.933Z,12.33
2023-02-24T20:39:00.810Z,11.97
2023-02-24T20:41:29.712Z,10.63
2023-02-24T20:43:57.841Z,11.50
2023-02-24T20:46:29.391Z,12.60
2023-02-24T20:49:00.880Z,10.10
2023-02-24T20:51:32.344Z,11.07
2023-02-24T20:54:02.043Z,11.43
2023-02-24T20:56:35.626Z,11.40
2023-02-24T20:59:07.203Z,10.90
2023-02-24T21:01:37.041Z,9.83
2023-02-24T21:04:05.640Z,10.60
2023-02-24T21:06:35.933Z,10.30
2023-02-24T21:09:05.449Z,11.00
2023-02-24T21:11:33.954Z,13.30
2023-02-24T21:14:02.660Z,10.80
2023-02-24T21:16:30.815Z,11.47
2023-02-24T21:18:59.506Z,12.67
2023-02-24T21:21:28.261Z,13.33
2023-02-24T21:23:57.738Z,11.67
2023-02-24T21:26:26.997Z,11.53
2023-02-24T21:28:57.944Z,12.20
2023-02-24T21:31:27.240Z,10.97
2023-02-24T21:33:56.628Z,10.63
2023-02-24T21:36:27.702Z,14.00
2023-02-24T21:38:57.469Z,12.03
2023-02-24T21:41:25.603Z,11.53
2023-02-24T21:43:55.733Z,10.87
2023-02-24T21:46:28.123Z,11.97
2023-02-24T21:48:58.310Z,12.37
2023-02-24T21:51:27.712Z,12.47
2023-02-24T21:53:57.936Z,12.17
2023-02-24T21:56:29.742Z,13.57
2023-02-24T21:59:01.531Z,13.33
2023-02-24T22:01:33.949Z,12.03
2023-02-24T22:04:05.292Z,14.30
2023-02-24T22:06:36.223Z,14.83
2023-02-24T22:09:08.419Z,14.00
2023-02-24T22:11:39.050Z,14.57
2023-02-24T22:14:09.509Z,13.67
2023-02-24T22:16:38.125Z,13.53
2023-02-24T22:19:06.594Z,13.93
2023-02-24T22:21:34.900Z,13.40
2023-02-24T22:24:05.502Z,14.53
2023-02-24T22:26:33.790Z,13.87
2023-02-24T22:29:03.019Z,14.10
2023-02-24T22:31:33.928Z,16.57
2023-02-24T22:34:04.268Z,13.83
2023-02-24T22:36:36.656Z,14.60
2023-02-24T22:39:09.167Z,14.23
2023-02-24T22:41:39.168Z,14.00
2023-02-24T22:44:08.546Z,13.17
2023-02-24T22:46:39.219Z,13.87
2023-02-24T22:49:08.262Z,14.77
2023-02-24T22:51:36.450Z,12.00
2023-02-24T22:54:06.608Z,13.43
2023-02-24T22:56:34.922Z,14.10
2023-02-24T22:59:03.035Z,13.83
2023-02-24T23:01:34.905Z,13.07
2023-02-24T23:04:05.738Z,13.67
2023-02-24T23:06:35.935Z,13.23
2023-02-24T23:09:07.131Z,13.83
2023-02-24T23:11:39.207Z,14.17
2023-02-24T23:14:13.388Z,13.47
2023-02-24T23:16:44.248Z,13.53
2023-02-24T23:19:17.481Z,13.37
2023-02-24T23:21:49.666Z,12.93
2023-02-24T23:24:21.584Z,11.60
2023-02-24T23:26:53.740Z,12.87
2023-02-24T23:29:24.177Z,11.93
2023-02-24T23:31:53.768Z,12.63
2023-02-24T23:34:21.970Z,12.47
2023-02-24T23:36:50.105Z,12.17
2023-02-24T23:39:24.975Z,14.13
2023-02-24T23:41:57.577Z,12.00
2023-02-24T23:44:26.285Z,9.73
2023-02-24T23:46:54.797Z,12.77
2023-02-24T23:49:22.954Z,9.90
2023-02-24T23:51:51.104Z,11.57
2023-02-24T23:54:20.646Z,9.47
2023-02-24T23:56:49.773Z,9.83
2023-02-24T23:59:17.898Z,9.23
